Time;durP1;ratioP1;P1;durP2;ratioP2;P2;SDS_P1;SDS_P2;PMS_P1;PMS_P2;Temp;Humidity;BMP_temperature;BMP_pressure;BME280_temperature;BME280_humidity;BME280_pressure;Samples;Min_cycle;Max_cycle;Signal;HPM_P1;HPM_P2
2022/01/05 00:00:49;;;;;;;15.02;2.22;;;1.80;99.90;;;;;;5095006;28;20071;-78
2022/01/05 00:03:15;;;;;;;12.25;2.45;;;2.70;99.90;;;;;;5106772;28;20033;-78
2022/01/05 00:05:41;;;;;;;11.65;1.83;;;1.90;99.90;;;;;;5074181;28;20056;-78
2022/01/05 00:08:07;;;;;;;10.40;1.88;;;2.20;99.90;;;;;;5073317;28;20047;-78
2022/01/05 00:10:33;;;;;;;13.52;1.70;;;2.10;99.90;;;;;;5074226;28;20054;-78
2022/01/05 00:12:59;;;;;;;11.55;2.28;;;2.20;99.90;;;;;;5074385;28;20437;-78
2022/01/05 00:15:24;;;;;;;13.95;2.28;;;2.10;99.90;;;;;;5073429;28;20511;-78
2022/01/05 00:17:50;;;;;;;9.63;1.63;;;2.10;99.90;;;;;;5075262;28;20045;-78
2022/01/05 00:20:16;;;;;;;9.40;1.92;;;2.10;99.90;;;;;;5093331;28;20051;-76
2022/01/05 00:22:41;;;;;;;11.50;3.03;;;2.20;99.90;;;;;;5094694;28;20044;-78
2022/01/05 00:25:07;;;;;;;10.38;1.67;;;2.80;99.90;;;;;;5095352;28;20066;-77
2022/01/05 00:27:33;;;;;;;16.38;3.45;;;2.40;99.90;;;;;;5094394;28;20051;-78
2022/01/05 00:29:59;;;;;;;17.95;2.03;;;2.40;99.90;;;;;;5094206;28;20044;-78
2022/01/05 00:32:25;;;;;;;20.77;2.85;;;2.50;99.90;;;;;;5094139;28;20044;-78
2022/01/05 00:34:52;;;;;;;18.83;2.33;;;2.50;99.90;;;;;;5093890;28;20051;-78
2022/01/05 00:37:18;;;;;;;13.60;2.45;;;2.60;99.90;;;;;;5093435;28;20052;-78
2022/01/05 00:39:44;;;;;;;8.85;1.83;;;2.80;99.90;;;;;;5093832;28;20537;-77
2022/01/05 00:42:10;;;;;;;20.75;2.47;;;2.60;99.90;;;;;;5094215;28;20091;-78
2022/01/05 00:44:36;;;;;;;16.80;2.42;;;3.50;99.90;;;;;;5093877;28;20513;-78
2022/01/05 00:47:02;;;;;;;18.70;3.00;;;2.60;99.90;;;;;;5094814;28;20071;-77
2022/01/05 00:49:28;;;;;;;13.88;2.15;;;2.60;99.90;;;;;;5092566;28;20044;-79
2022/01/05 00:51:54;;;;;;;11.90;2.13;;;2.70;99.90;;;;;;5094983;28;20495;-78
2022/01/05 00:54:19;;;;;;;15.02;2.63;;;2.70;99.90;;;;;;5093689;28;20128;-77
2022/01/05 00:56:45;;;;;;;10.85;2.17;;;3.10;99.90;;;;;;5094003;28;20048;-77
2022/01/05 00:59:11;;;;;;;12.57;2.40;;;3.00;99.90;;;;;;5076675;28;20442;-78
2022/01/05 01:01:36;;;;;;;12.32;2.20;;;2.90;99.90;;;;;;5093647;28;20051;-78
2022/01/05 01:04:04;;;;;;;22.70;3.03;;;2.90;99.90;;;;;;5092352;28;20044;-77
2022/01/05 01:06:30;;;;;;;14.45;2.70;;;2.90;99.90;;;;;;5094890;28;20066;-77
2022/01/05 01:08:56;;;;;;;10.70;1.80;;;3.50;99.90;;;;;;5094670;28;20087;-77
2022/01/05 01:11:22;;;;;;;14.10;3.22;;;2.90;99.90;;;;;;5093647;28;20044;-78
2022/01/05 01:13:48;;;;;;;12.73;2.72;;;3.10;99.90;;;;;;5094498;28;20105;-77
2022/01/05 01:16:14;;;;;;;8.00;1.95;;;3.30;99.90;;;;;;5094512;28;20048;-78
2022/01/05 01:18:40;;;;;;;17.08;3.38;;;3.00;99.90;;;;;;5093080;28;20544;-78
2022/01/05 01:21:05;;;;;;;9.93;2.17;;;3.00;99.90;;;;;;5075815;28;20479;-77
2022/01/05 01:23:31;;;;;;;8.65;1.70;;;2.90;99.90;;;;;;5093240;28;20085;-77
2022/01/05 01:25:57;;;;;;;14.77;2.45;;;3.20;99.90;;;;;;5093402;28;20480;-77
2022/01/05 01:28:24;;;;;;;10.05;2.05;;;3.00;99.90;;;;;;5094233;28;20048;-78
2022/01/05 01:30:49;;;;;;;9.23;1.98;;;2.90;99.90;;;;;;5092721;28;20441;-78
2022/01/05 01:33:15;;;;;;;17.67;2.70;;;3.00;99.90;;;;;;5093013;28;20040;-77
2022/01/05 01:35:41;;;;;;;23.23;2.90;;;3.10;99.90;;;;;;5094410;28;20090;-77
2022/01/05 01:38:07;;;;;;;12.15;3.33;;;3.00;99.90;;;;;;5094186;28;20032;-77
2022/01/05 01:40:33;;;;;;;7.97;2.38;;;3.00;99.90;;;;;;5091936;28;20048;-78
2022/01/05 01:42:58;;;;;;;15.70;2.20;;;3.00;99.90;;;;;;5093398;28;20044;-78
2022/01/05 01:45:24;;;;;;;12.68;2.55;;;3.90;99.90;;;;;;5092057;28;20048;-77
2022/01/05 01:47:50;;;;;;;11.57;3.05;;;2.90;99.90;;;;;;5109600;28;20491;-78
2022/01/05 01:50:16;;;;;;;13.45;2.50;;;3.90;99.90;;;;;;5093626;28;20193;-78
2022/01/05 01:52:41;;;;;;;17.05;3.53;;;2.90;99.90;;;;;;5091196;28;20054;-77
2022/01/05 01:55:08;;;;;;;20.52;4.07;;;3.90;99.90;;;;;;5092703;28;20074;-78
2022/01/05 01:57:38;;;;;;;17.08;2.08;;;2.90;99.90;;;;;;5092641;28;20126;-78
2022/01/05 02:00:06;;;;;;;13.63;2.30;;;3.00;99.90;;;;;;5093798;28;20052;-78
2022/01/05 02:02:32;;;;;;;10.80;2.33;;;2.90;99.90;;;;;;5092375;28;20080;-78
2022/01/05 02:04:57;;;;;;;27.20;4.88;;;2.90;99.90;;;;;;5092228;28;20129;-78
2022/01/05 02:07:23;;;;;;;12.15;1.92;;;2.80;99.90;;;;;;5091787;28;20055;-78
2022/01/05 02:09:49;;;;;;;9.10;2.53;;;3.20;99.90;;;;;;5109548;28;20076;-78
2022/01/05 02:12:15;;;;;;;15.70;2.63;;;2.80;99.90;;;;;;5093690;28;20028;-77
2022/01/05 02:14:40;;;;;;;12.15;2.00;;;2.80;99.90;;;;;;5092915;28;20036;-78
2022/01/05 02:17:17;;;;;;;12.25;2.60;;;2.90;99.90;;;;;;5092172;28;20048;-77
2022/01/05 02:19:43;;;;;;;15.55;2.70;;;3.40;99.90;;;;;;5093060;28;20040;-77
2022/01/05 02:22:08;;;;;;;18.58;2.83;;;2.90;99.90;;;;;;5092750;28;20101;-77
2022/01/05 02:24:34;;;;;;;21.02;2.90;;;3.70;99.90;;;;;;5093096;28;20044;-77
2022/01/05 02:27:00;;;;;;;12.98;2.75;;;3.00;99.90;;;;;;5109144;28;20113;-77
2022/01/05 02:29:25;;;;;;;15.85;3.15;;;3.60;99.90;;;;;;5091309;28;20051;-77
2022/01/05 02:31:51;;;;;;;20.73;3.70;;;3.10;99.90;;;;;;5091880;28;20048;-76
2022/01/05 02:34:17;;;;;;;15.10;2.40;;;3.10;99.90;;;;;;5092232;28;20048;-77
2022/01/05 02:36:43;;;;;;;16.17;2.33;;;3.10;99.90;;;;;;5074418;28;20044;-78
2022/01/05 02:39:09;;;;;;;19.95;3.67;;;3.20;99.90;;;;;;5093365;28;20048;-78
2022/01/05 02:41:35;;;;;;;11.88;2.20;;;3.20;99.90;;;;;;5093222;28;20575;-78
2022/01/05 02:44:01;;;;;;;21.05;3.22;;;3.20;99.90;;;;;;5093317;28;20052;-78
2022/01/05 02:46:26;;;;;;;18.60;2.42;;;3.30;99.90;;;;;;5109034;28;20129;-77
2022/01/05 02:48:54;;;;;;;20.02;3.03;;;3.20;99.90;;;;;;5091866;28;20044;-77
2022/01/05 02:51:21;;;;;;;16.90;2.63;;;3.20;99.90;;;;;;5093064;28;20064;-77
2022/01/05 02:53:47;;;;;;;15.98;2.92;;;3.20;99.90;;;;;;5093332;28;20051;-77
2022/01/05 02:56:13;;;;;;;16.20;2.85;;;3.50;99.90;;;;;;5091077;28;20058;-77
2022/01/05 02:58:39;;;;;;;15.68;3.25;;;3.80;99.90;;;;;;5093202;28;20122;-75
2022/01/05 03:01:06;;;;;;;16.67;2.92;;;3.50;99.90;;;;;;5091930;28;20570;-78
2022/01/05 03:03:32;;;;;;;13.27;2.65;;;4.10;99.90;;;;;;5092979;28;20115;-78
2022/01/05 03:05:57;;;;;;;15.02;2.78;;;3.40;99.90;;;;;;5095873;28;20084;-77
2022/01/05 03:08:23;;;;;;;11.80;2.28;;;3.60;99.90;;;;;;5097010;28;20466;-77
2022/01/05 03:10:49;;;;;;;16.20;2.50;;;3.60;99.90;;;;;;5096091;28;20360;-75
2022/01/05 03:13:15;;;;;;;15.10;2.25;;;3.60;99.90;;;;;;5096888;28;20039;-78
2022/01/05 03:15:41;;;;;;;22.63;3.20;;;4.50;99.90;;;;;;5096875;28;20365;-77
2022/01/05 03:18:07;;;;;;;16.80;2.63;;;3.80;99.90;;;;;;5095680;28;20111;-77
2022/01/05 03:20:34;;;;;;;13.35;2.20;;;4.00;99.90;;;;;;5095249;28;20048;-77
2022/01/05 03:23:02;;;;;;;12.75;2.47;;;3.90;99.90;;;;;;5096673;28;20036;-78
2022/01/05 03:25:28;;;;;;;11.52;2.58;;;3.90;99.90;;;;;;5095908;28;20123;-78
2022/01/05 03:27:54;;;;;;;9.65;1.65;;;4.00;99.90;;;;;;5095494;28;20127;-76
2022/01/05 03:30:23;;;;;;;14.45;2.47;;;3.90;99.90;;;;;;5096428;28;20052;-77
2022/01/05 03:35:23;;;;;;;;;;;4.00;99.90;;;;;;5096682;28;20044;-78
2022/01/05 03:37:49;;;;;;;11.23;2.20;;;4.00;99.90;;;;;;5095967;28;19976;-78
2022/01/05 03:40:15;;;;;;;9.32;1.70;;;3.80;99.90;;;;;;5094823;28;20111;-77
2022/01/05 03:42:40;;;;;;;11.98;2.42;;;4.90;99.90;;;;;;5095044;28;20613;-78
2022/01/05 03:45:06;;;;;;;9.02;1.48;;;4.00;99.90;;;;;;5111193;28;20055;-77
2022/01/05 03:47:32;;;;;;;20.38;2.53;;;4.00;99.90;;;;;;5095310;28;20388;-77
2022/01/05 03:49:58;;;;;;;20.02;3.45;;;4.10;99.90;;;;;;5094365;28;20055;-76
2022/01/05 03:52:24;;;;;;;11.90;1.92;;;4.00;99.90;;;;;;5094095;28;20043;-77
2022/01/05 03:54:49;;;;;;;12.35;1.85;;;4.00;99.90;;;;;;5094913;28;20043;-78
2022/01/05 03:57:15;;;;;;;21.08;5.07;;;4.20;99.90;;;;;;5094617;28;20078;-77
2022/01/05 03:59:41;;;;;;;13.68;1.92;;;4.00;99.90;;;;;;5095097;28;20040;-75
2022/01/05 04:02:07;;;;;;;17.95;2.03;;;4.00;99.90;;;;;;5077655;28;20048;-76
2022/01/05 04:04:32;;;;;;;12.32;1.58;;;4.00;99.90;;;;;;5094493;28;20044;-76
2022/01/05 04:06:58;;;;;;;8.48;1.85;;;4.00;99.90;;;;;;5093878;28;20047;-78
2022/01/05 04:09:24;;;;;;;11.98;2.67;;;4.00;99.90;;;;;;5095383;28;20487;-77
2022/01/05 04:11:49;;;;;;;7.38;1.60;;;4.20;99.90;;;;;;5094549;28;20043;-77
2022/01/05 04:14:15;;;;;;;13.63;1.90;;;4.00;99.90;;;;;;5095145;28;20064;-77
2022/01/05 04:16:41;;;;;;;11.80;1.80;;;4.00;99.90;;;;;;5095051;28;20048;-77
2022/01/05 04:19:06;;;;;;;7.57;1.67;;;4.00;99.90;;;;;;5093658;28;20036;-77
2022/01/05 04:21:32;;;;;;;13.63;1.98;;;4.00;99.90;;;;;;5093036;28;20044;-76
2022/01/05 04:23:58;;;;;;;15.40;1.98;;;3.90;99.90;;;;;;5094058;28;20096;-77
2022/01/05 04:26:23;;;;;;;13.20;1.77;;;3.80;99.90;;;;;;5095391;28;20058;-77
2022/01/05 04:28:49;;;;;;;11.60;3.45;;;3.90;99.90;;;;;;5094692;28;20391;-76
2022/01/05 04:31:15;;;;;;;9.18;2.10;;;3.80;99.90;;;;;;5095293;28;20044;-77
2022/01/05 04:33:41;;;;;;;12.25;2.10;;;3.80;99.90;;;;;;5095011;28;20629;-77
2022/01/05 04:36:07;;;;;;;16.30;2.42;;;4.00;99.90;;;;;;5093091;28;20117;-76
2022/01/05 04:38:34;;;;;;;13.35;2.13;;;3.90;99.90;;;;;;5093890;28;20056;-76
2022/01/05 04:40:59;;;;;;;9.55;2.67;;;3.70;99.90;;;;;;5095086;28;20487;-77
2022/01/05 04:43:25;;;;;;;11.45;2.72;;;4.20;99.90;;;;;;5094320;28;20051;-77
2022/01/05 04:45:51;;;;;;;9.38;2.15;;;3.70;99.90;;;;;;5093839;28;20147;-77
2022/01/05 04:48:17;;;;;;;16.70;2.35;;;3.90;99.90;;;;;;5093966;28;20550;-77
2022/01/05 04:50:43;;;;;;;15.98;2.67;;;3.70;99.90;;;;;;5093221;28;20147;-77
2022/01/05 04:53:11;;;;;;;7.38;2.45;;;3.70;99.90;;;;;;5093518;28;20048;-78
2022/01/05 04:55:38;;;;;;;12.73;2.17;;;4.30;99.90;;;;;;5094170;28;20043;-77
2022/01/05 04:58:04;;;;;;;20.20;3.42;;;3.60;99.90;;;;;;5093521;28;20056;-76
2022/01/05 05:00:30;;;;;;;17.00;2.63;;;3.60;99.90;;;;;;5094792;28;20048;-75
2022/01/05 05:02:55;;;;;;;15.98;2.70;;;3.90;99.90;;;;;;5093814;28;20194;-77
2022/01/05 05:05:21;;;;;;;17.42;2.65;;;3.80;99.90;;;;;;5093312;28;20052;-77
2022/01/05 05:07:47;;;;;;;16.13;2.10;;;3.90;99.90;;;;;;5094877;28;20448;-77
2022/01/05 05:10:12;;;;;;;17.40;2.85;;;4.00;99.90;;;;;;5092339;28;20077;-77
2022/01/05 05:12:38;;;;;;;18.65;3.38;;;3.90;99.90;;;;;;5093161;28;20050;-77
2022/01/05 05:15:04;;;;;;;14.30;2.42;;;3.90;99.90;;;;;;5094536;28;20131;-76
2022/01/05 05:17:30;;;;;;;22.20;3.10;;;3.90;99.90;;;;;;5093392;28;20439;-77
2022/01/05 05:19:56;;;;;;;17.48;2.75;;;3.90;99.90;;;;;;5092744;28;20119;-77
2022/01/05 05:22:21;;;;;;;21.90;3.03;;;4.20;99.90;;;;;;5094346;28;20028;-77
2022/01/05 05:24:47;;;;;;;22.15;2.90;;;4.20;99.90;;;;;;5093703;28;20399;-76
2022/01/05 05:27:13;;;;;;;13.50;3.40;;;4.40;99.90;;;;;;5093510;28;20097;-75
2022/01/05 05:29:39;;;;;;;24.13;3.60;;;4.20;99.90;;;;;;5093184;28;20036;-78
2022/01/05 05:32:05;;;;;;;22.75;2.88;;;4.10;99.90;;;;;;5092255;28;20403;-77
2022/01/05 05:34:31;;;;;;;17.77;2.92;;;4.10;99.90;;;;;;5093778;28;20105;-77
2022/01/05 05:36:57;;;;;;;23.23;3.47;;;4.10;99.90;;;;;;5092740;28;20048;-75
2022/01/05 05:39:23;;;;;;;19.52;3.45;;;4.10;99.90;;;;;;5075193;28;20048;-78
2022/01/05 05:41:48;;;;;;;18.55;2.88;;;4.20;99.90;;;;;;5092746;28;20051;-76
2022/01/05 05:44:14;;;;;;;20.38;4.93;;;4.20;99.90;;;;;;5092848;28;20051;-78
2022/01/05 05:46:40;;;;;;;26.92;4.22;;;4.30;99.90;;;;;;5093227;28;20039;-75
2022/01/05 05:49:05;;;;;;;22.52;4.55;;;4.30;99.90;;;;;;5092451;28;20456;-76
2022/01/05 05:51:31;;;;;;;15.18;2.47;;;4.30;99.90;;;;;;5091597;28;20193;-78
2022/01/05 05:53:57;;;;;;;17.15;3.97;;;4.30;99.90;;;;;;5093801;28;20048;-76
2022/01/05 05:56:23;;;;;;;25.00;2.90;;;4.30;99.90;;;;;;5093808;28;20047;-75
2022/01/05 05:58:48;;;;;;;18.40;2.72;;;4.30;99.90;;;;;;5092940;28;20560;-78
2022/01/05 06:01:14;;;;;;;16.38;3.03;;;4.30;99.90;;;;;;5092600;28;20403;-77
2022/01/05 06:03:40;;;;;;;21.65;3.35;;;4.30;99.90;;;;;;5092129;28;20036;-77
2022/01/05 06:06:05;;;;;;;13.43;2.67;;;4.30;99.90;;;;;;5091703;28;20079;-76
2022/01/05 06:08:32;;;;;;;16.83;3.20;;;4.40;99.90;;;;;;5092450;28;20040;-77
2022/01/05 06:10:58;;;;;;;23.92;2.83;;;4.30;99.90;;;;;;5092335;28;20048;-77
2022/01/05 06:13:24;;;;;;;19.55;2.38;;;4.30;99.90;;;;;;5108470;28;20063;-77
2022/01/05 06:15:49;;;;;;;13.43;2.40;;;5.50;99.90;;;;;;5092742;28;20149;-76
2022/01/05 06:18:15;;;;;;;13.40;3.33;;;4.30;99.90;;;;;;5075209;28;20123;-77
2022/01/05 06:20:41;;;;;;;19.75;2.95;;;4.40;99.90;;;;;;5091576;28;20051;-77
2022/01/05 06:23:07;;;;;;;19.55;2.78;;;4.40;99.90;;;;;;5092284;28;20036;-77
2022/01/05 06:25:32;;;;;;;16.73;2.25;;;4.70;99.90;;;;;;5092295;28;20143;-76
2022/01/05 06:27:58;;;;;;;13.65;1.95;;;4.40;99.90;;;;;;5091215;28;20040;-77
2022/01/05 06:30:24;;;;;;;9.82;2.20;;;4.70;99.90;;;;;;5093502;28;20091;-77
2022/01/05 06:32:49;;;;;;;22.67;4.80;;;4.50;99.90;;;;;;5093553;28;20032;-77
2022/01/05 06:35:18;;;;;;;13.38;1.70;;;4.70;99.90;;;;;;5092151;28;20040;-78
2022/01/05 06:37:43;;;;;;;8.95;2.40;;;4.50;99.90;;;;;;5093847;28;20055;-76
2022/01/05 06:40:10;;;;;;;15.45;3.80;;;4.50;99.90;;;;;;5096128;28;20040;-76
2022/01/05 06:42:35;;;;;;;7.32;1.58;;;4.60;99.90;;;;;;5095322;28;20048;-76
2022/01/05 06:45:01;;;;;;;9.50;1.35;;;4.70;99.90;;;;;;5097423;28;20108;-76
2022/01/05 06:47:27;;;;;;;13.48;1.85;;;4.60;99.90;;;;;;5097449;28;20064;-76
2022/01/05 06:49:53;;;;;;;5.95;1.25;;;4.50;99.90;;;;;;5093090;28;20449;-77
2022/01/05 06:52:18;;;;;;;7.78;1.20;;;4.40;99.90;;;;;;5095621;28;20062;-78
2022/01/05 06:54:44;;;;;;;15.90;2.47;;;4.40;99.90;;;;;;5097154;28;20051;-78
2022/01/05 06:57:10;;;;;;;8.68;1.13;;;4.40;99.90;;;;;;5095665;28;20127;-77
2022/01/05 06:59:36;;;;;;;7.10;1.13;;;4.40;99.90;;;;;;5096930;28;20090;-77
2022/01/05 07:02:04;;;;;;;13.35;1.65;;;4.30;99.90;;;;;;5094933;28;20050;-76
2022/01/05 07:04:30;;;;;;;14.52;2.00;;;4.30;99.90;;;;;;5095333;28;20055;-77
2022/01/05 07:06:56;;;;;;;14.80;2.95;;;4.30;99.90;;;;;;5096845;28;20044;-77
2022/01/05 07:09:21;;;;;;;11.98;1.88;;;4.40;99.90;;;;;;5094820;28;20094;-77
2022/01/05 07:11:47;;;;;;;12.15;1.80;;;4.40;99.90;;;;;;5096756;28;20054;-77
2022/01/05 07:14:13;;;;;;;12.73;2.20;;;4.40;99.90;;;;;;5095583;28;20044;-78
2022/01/05 07:16:38;;;;;;;13.18;1.83;;;4.40;99.90;;;;;;5096102;28;20044;-76
2022/01/05 07:19:04;;;;;;;15.40;2.20;;;4.70;99.90;;;;;;5096640;28;20472;-77
2022/01/05 07:21:33;;;;;;;13.93;1.70;;;4.50;99.90;;;;;;5096787;28;20081;-78
2022/01/05 07:24:00;;;;;;;15.90;2.80;;;4.50;99.90;;;;;;5094532;28;20058;-78
2022/01/05 07:26:27;;;;;;;17.63;2.83;;;4.50;99.90;;;;;;5095398;28;20058;-78
2022/01/05 07:28:54;;;;;;;11.02;1.90;;;4.60;99.90;;;;;;5095608;28;20120;-76
2022/01/05 07:31:20;;;;;;;17.48;3.00;;;5.00;99.90;;;;;;5094257;28;20048;-78
2022/01/05 07:33:46;;;;;;;16.40;3.50;;;4.70;99.90;;;;;;5094822;28;20036;-77
2022/01/05 07:36:12;;;;;;;12.15;2.85;;;4.80;99.90;;;;;;5095167;28;20105;-78
2022/01/05 07:38:38;;;;;;;13.23;1.80;;;4.80;99.90;;;;;;5077449;28;20036;-77
2022/01/05 07:41:04;;;;;;;10.20;1.52;;;4.90;99.90;;;;;;5095150;28;20491;-76
2022/01/05 07:43:30;;;;;;;10.50;1.60;;;5.00;99.90;;;;;;5096292;28;20052;-76
2022/01/05 07:45:59;;;;;;;19.30;2.75;;;5.00;99.90;;;;;;5094097;28;20044;-78
2022/01/05 07:48:28;;;;;;;10.95;2.25;;;5.00;99.90;;;;;;5096069;28;20072;-76
2022/01/05 07:50:54;;;;;;;15.93;2.08;;;5.00;99.90;;;;;;5094502;28;20060;-75
2022/01/05 07:53:21;;;;;;;13.57;1.92;;;5.10;99.90;;;;;;5094411;28;20055;-77
2022/01/05 07:55:47;;;;;;;12.40;1.73;;;5.10;99.90;;;;;;5094598;28;20087;-78
2022/01/05 07:58:14;;;;;;;16.00;2.17;;;5.10;99.90;;;;;;5094213;28;20052;-79
2022/01/05 08:00:40;;;;;;;16.27;2.00;;;5.10;99.90;;;;;;5094756;28;20048;-78
2022/01/05 08:03:06;;;;;;;17.42;2.80;;;5.20;99.90;;;;;;5096230;28;20048;-78
2022/01/05 08:05:32;;;;;;;12.40;1.90;;;5.10;99.90;;;;;;5093832;28;20093;-77
2022/01/05 08:07:57;;;;;;;15.80;1.80;;;5.10;99.90;;;;;;5094672;28;20549;-75
2022/01/05 08:10:23;;;;;;;8.68;1.77;;;5.10;99.90;;;;;;5095643;28;20040;-76
2022/01/05 08:12:49;;;;;;;9.07;2.17;;;5.10;99.90;;;;;;5095411;28;20105;-78
2022/01/05 08:15:15;;;;;;;13.60;2.00;;;5.20;99.90;;;;;;5095645;28;20535;-75
2022/01/05 08:17:44;;;;;;;15.77;1.95;;;5.20;99.90;;;;;;5095796;28;20040;-74
2022/01/05 08:20:11;;;;;;;14.82;2.35;;;5.20;99.90;;;;;;5094454;28;20090;-76
2022/01/05 08:22:42;;;;;;;7.60;1.42;;;5.30;99.90;;;;;;5095435;28;20119;-75
2022/01/05 08:25:10;;;;;;;18.70;2.85;;;5.40;99.90;;;;;;5095569;28;20052;-76
2022/01/05 08:27:36;;;;;;;21.10;2.75;;;5.40;99.90;;;;;;5094759;28;20036;-75
2022/01/05 08:30:05;;;;;;;8.85;2.90;;;5.50;99.90;;;;;;5095305;28;20475;-75
2022/01/05 08:32:32;;;;;;;8.50;1.77;;;5.50;99.90;;;;;;5095289;28;20483;-73
2022/01/05 08:34:59;;;;;;;7.60;1.33;;;5.60;99.90;;;;;;5094464;28;20083;-77
2022/01/05 08:37:25;;;;;;;8.77;1.33;;;5.60;99.90;;;;;;5095329;28;20048;-74
2022/01/05 08:39:51;;;;;;;17.25;3.20;;;5.50;99.90;;;;;;5094997;28;20479;-76
2022/01/05 08:42:18;;;;;;;12.95;1.77;;;5.50;99.90;;;;;;5087987;28;20047;-77
2022/01/05 08:44:44;;;;;;;11.63;3.03;;;5.50;99.90;;;;;;5093411;28;20100;-77
2022/01/05 08:47:10;;;;;;;12.85;1.77;;;5.50;99.90;;;;;;5094779;28;20127;-77
2022/01/05 08:49:36;;;;;;;11.23;2.20;;;5.60;99.90;;;;;;5092928;28;20498;-76
2022/01/05 08:52:02;;;;;;;18.60;2.00;;;5.50;99.90;;;;;;5093766;28;20119;-79
2022/01/05 08:54:27;;;;;;;11.32;1.65;;;5.60;99.90;;;;;;5094119;28;20510;-76
2022/01/05 08:56:54;;;;;;;8.85;1.20;;;5.60;99.90;;;;;;5094241;28;20430;-78
2022/01/05 08:59:20;;;;;;;15.38;2.03;;;5.60;99.90;;;;;;5089152;28;20657;-76
2022/01/05 09:01:46;;;;;;;13.32;2.63;;;5.70;99.90;;;;;;5080607;28;20046;-74
2022/01/05 09:04:12;;;;;;;13.38;2.50;;;5.70;99.90;;;;;;5084217;28;20040;-76
2022/01/05 09:06:38;;;;;;;17.05;3.08;;;5.70;99.90;;;;;;5092362;28;20398;-76
2022/01/05 09:09:04;;;;;;;18.50;3.00;;;5.70;99.90;;;;;;5074916;28;20044;-76
2022/01/05 09:11:30;;;;;;;16.65;2.67;;;5.80;99.90;;;;;;5078164;28;20036;-77
2022/01/05 09:13:56;;;;;;;13.75;1.92;;;5.80;99.90;;;;;;5092766;28;20093;-77
2022/01/05 09:16:22;;;;;;;20.38;2.10;;;5.80;99.90;;;;;;5072974;28;20051;-76
2022/01/05 09:18:50;;;;;;;19.58;3.60;;;5.90;99.90;;;;;;5078284;28;20032;-77
2022/01/05 09:21:15;;;;;;;19.85;2.50;;;5.90;99.90;;;;;;5075155;28;20067;-77
2022/01/05 09:23:43;;;;;;;20.58;4.10;;;5.90;99.90;;;;;;5078026;28;20141;-77
2022/01/05 09:26:09;;;;;;;14.10;3.63;;;5.90;99.90;;;;;;5078676;28;20097;-76
2022/01/05 09:28:42;;;;;;;19.23;3.50;;;5.90;99.90;;;;;;5082177;28;20115;-76
2022/01/05 09:31:08;;;;;;;25.55;3.60;;;6.10;99.90;;;;;;5077044;28;20051;-77
2022/01/05 09:33:34;;;;;;;24.15;3.55;;;6.10;99.90;;;;;;5092217;28;20059;-75
2022/01/05 09:36:06;;;;;;;17.15;2.97;;;6.10;99.90;;;;;;5078140;28;20045;-77
2022/01/05 09:43:53;;;;;;;23.63;4.93;;;6.30;99.90;;;;;;5086715;28;20097;-76
2022/01/05 09:46:31;;;;;;;25.70;4.40;;;6.30;99.90;;;;;;5090369;28;20573;-77
2022/01/05 09:49:10;;;;;;;27.58;5.50;;;6.40;99.90;;;;;;5075821;28;20056;-77
2022/01/05 09:51:41;;;;;;;32.90;4.55;;;6.30;99.90;;;;;;5091841;28;20118;-76
2022/01/05 09:54:12;;;;;;;28.38;3.60;;;6.40;99.90;;;;;;5088146;28;20445;-75
2022/01/05 09:56:38;;;;;;;27.73;3.60;;;6.40;99.90;;;;;;5092322;28;20089;-77
2022/01/05 09:59:04;;;;;;;17.50;3.13;;;6.40;99.90;;;;;;5087653;28;20079;-75
2022/01/05 10:01:33;;;;;;;28.05;4.55;;;6.40;99.90;;;;;;5073494;28;20047;-76
2022/01/05 10:04:00;;;;;;;19.27;3.92;;;6.50;99.90;;;;;;5093033;28;20059;-77
2022/01/05 10:06:26;;;;;;;30.95;6.28;;;6.50;99.90;;;;;;5077442;28;20039;-76
2022/01/05 10:08:51;;;;;;;24.05;4.32;;;6.60;99.90;;;;;;5093407;28;20040;-77
2022/01/05 10:11:20;;;;;;;17.20;3.25;;;6.60;99.90;;;;;;5109028;28;20113;-77
2022/01/05 10:13:46;;;;;;;21.90;3.65;;;6.70;99.90;;;;;;5090090;28;20127;-76
2022/01/05 10:16:12;;;;;;;23.77;4.40;;;6.70;99.90;;;;;;5075321;28;20134;-75
2022/01/05 10:18:42;;;;;;;19.50;3.97;;;6.70;99.90;;;;;;5090539;28;20040;-77
2022/01/05 10:21:14;;;;;;;18.60;4.75;;;6.80;99.90;;;;;;5077146;28;20444;-76
2022/01/05 10:23:41;;;;;;;14.00;3.30;;;6.70;99.90;;;;;;5083651;28;20111;-74
2022/01/05 10:26:28;;;;;;;21.70;2.97;;;6.70;99.90;;;;;;5071232;28;20555;-76
2022/01/05 10:29:13;;;;;;;17.83;2.60;;;6.60;99.90;;;;;;5072998;28;21338;-76
2022/01/05 10:31:40;;;;;;;19.73;3.40;;;6.50;99.90;;;;;;5078165;28;20032;-76
2022/01/05 10:34:21;;;;;;;18.85;3.20;;;6.40;99.90;;;;;;5073845;28;20113;-77
2022/01/05 10:36:52;;;;;;;21.48;2.90;;;6.50;99.90;;;;;;5085467;28;20494;-75
2022/01/05 10:39:39;;;;;;;18.85;4.25;;;6.40;99.90;;;;;;5093403;28;20055;-76
2022/01/05 10:42:09;;;;;;;11.38;2.90;;;6.50;99.90;;;;;;5077833;28;20589;-77
2022/01/05 10:44:35;;;;;;;19.42;3.70;;;6.60;99.90;;;;;;5084278;28;20052;-76
2022/01/05 10:47:01;;;;;;;24.90;3.75;;;6.70;99.90;;;;;;5074428;28;20122;-76
2022/01/05 10:49:34;;;;;;;19.58;3.25;;;6.80;99.90;;;;;;5074873;28;20562;-77
2022/01/05 10:52:27;;;;;;;21.02;4.03;;;7.00;99.90;;;;;;5093444;28;20048;-75
2022/01/05 10:54:54;;;;;;;20.35;3.13;;;7.10;99.90;;;;;;5085069;28;20051;-76
2022/01/05 10:57:21;;;;;;;19.10;2.63;;;7.20;99.90;;;;;;5086266;28;20040;-76
2022/01/05 10:59:49;;;;;;;18.08;3.13;;;7.30;99.90;;;;;;5074654;28;20036;-76
2022/01/05 11:02:28;;;;;;;11.73;2.10;;;7.30;99.90;;;;;;5074826;28;20480;-75
2022/01/05 11:05:10;;;;;;;12.88;2.50;;;7.30;99.90;;;;;;5072943;28;20048;-75
2022/01/05 11:07:40;;;;;;;13.77;2.88;;;7.30;99.90;;;;;;5089227;28;20040;-77
2022/01/05 11:10:12;;;;;;;10.10;2.35;;;7.30;99.90;;;;;;5090938;28;20372;-77
2022/01/05 11:12:40;;;;;;;11.35;1.63;;;7.40;99.90;;;;;;5093206;28;20052;-75
2022/01/05 11:15:32;;;;;;;18.17;2.88;;;7.40;99.90;;;;;;5080769;28;20040;-75
2022/01/05 11:18:15;;;;;;;19.33;2.03;;;7.40;99.90;;;;;;5077084;28;20079;-75
2022/01/05 11:20:52;;;;;;;22.38;3.08;;;7.40;99.90;;;;;;5079983;28;20048;-76
2022/01/05 11:23:26;;;;;;;15.23;2.17;;;7.40;99.90;;;;;;5090731;28;20059;-75
2022/01/05 11:25:55;;;;;;;16.60;2.72;;;7.40;99.90;;;;;;5092908;28;20473;-76
2022/01/05 11:28:23;;;;;;;17.02;2.65;;;7.40;99.90;;;;;;5094892;28;20048;-75
2022/01/05 11:30:51;;;;;;;20.13;2.50;;;7.50;99.90;;;;;;5076708;28;20075;-76
2022/01/05 11:33:18;;;;;;;22.35;4.28;;;7.40;99.90;;;;;;5079871;28;20032;-76
2022/01/05 11:35:44;;;;;;;23.02;3.40;;;7.40;99.90;;;;;;5080695;28;20888;-76
2022/01/05 11:38:10;;;;;;;12.82;2.90;;;7.40;99.90;;;;;;5095014;28;20052;-75
2022/01/05 11:40:51;;;;;;;20.95;2.88;;;7.40;99.90;;;;;;5112224;28;20048;-76
2022/01/05 11:43:25;;;;;;;17.45;3.03;;;7.30;99.90;;;;;;5094163;28;20115;-75
2022/01/05 11:45:51;;;;;;;14.82;1.92;;;7.20;99.90;;;;;;5081226;28;20101;-76
2022/01/05 11:48:26;;;;;;;12.73;2.58;;;7.10;99.90;;;;;;5077930;28;20051;-77
2022/01/05 11:50:56;;;;;;;11.75;2.40;;;7.10;99.90;;;;;;5080171;28;20051;-76
2022/01/05 11:53:39;;;;;;;14.88;2.53;;;7.10;99.90;;;;;;5095928;28;20460;-77
2022/01/05 11:56:07;;;;;;;13.07;2.88;;;7.10;99.90;;;;;;5094985;28;20368;-74
2022/01/05 11:58:34;;;;;;;15.07;2.65;;;7.10;99.90;;;;;;5095152;28;20079;-74
2022/01/05 12:01:12;;;;;;;10.65;2.13;;;7.10;99.90;;;;;;5075810;28;20433;-74
2022/01/05 12:03:50;;;;;;;13.70;3.13;;;7.20;99.90;;;;;;5073864;28;20054;-73
2022/01/05 12:06:19;;;;;;;12.82;2.78;;;7.20;99.90;;;;;;5082018;28;20044;-73
2022/01/05 12:08:47;;;;;;;22.95;3.85;;;7.30;99.90;;;;;;5099856;28;20491;-75
2022/01/05 12:11:34;;;;;;;13.40;2.45;;;7.30;99.90;;;;;;5075482;28;20453;-74
2022/01/05 12:14:02;;;;;;;16.27;2.35;;;7.30;99.90;;;;;;5076918;28;20051;-76
2022/01/05 12:16:28;;;;;;;23.20;3.75;;;7.50;99.90;;;;;;5078790;28;20048;-74
2022/01/05 12:19:08;;;;;;;41.17;17.63;;;7.50;99.90;;;;;;5075779;28;21477;-77
2022/01/05 12:21:46;;;;;;;19.23;3.42;;;7.50;99.90;;;;;;5086704;28;20051;-76
2022/01/05 12:24:13;;;;;;;10.18;2.08;;;7.50;99.90;;;;;;5104952;28;20040;-76
2022/01/05 12:26:39;;;;;;;30.23;8.48;;;7.50;99.90;;;;;;5093514;28;20112;-76
2022/01/05 12:29:06;;;;;;;22.45;3.63;;;7.50;99.90;;;;;;5093226;28;20047;-76
2022/01/05 12:31:52;;;;;;;20.27;5.35;;;7.50;99.90;;;;;;5092650;28;20538;-77
2022/01/05 12:34:57;;;;;;;19.35;3.83;;;7.50;99.90;;;;;;5081027;28;20131;-74
2022/01/05 12:37:57;;;;;;;212.05;98.50;;;7.50;99.90;;;;;;5085678;28;20135;-76
2022/01/05 12:40:23;;;;;;;18.02;3.17;;;7.40;99.90;;;;;;5074743;28;20071;-75
2022/01/05 12:43:09;;;;;;;19.60;3.33;;;7.40;99.90;;;;;;5082790;28;20484;-76
2022/01/05 12:45:53;;;;;;;50.95;22.05;;;7.30;99.90;;;;;;5082864;28;20548;-76
2022/01/05 12:51:22;;;;;;;10.52;3.20;;;7.50;99.90;;;;;;5076904;28;20522;-77
2022/01/05 12:54:01;;;;;;;21.65;3.47;;;7.50;99.90;;;;;;5099519;28;20066;-77
2022/01/05 12:56:39;;;;;;;21.17;3.30;;;7.50;99.90;;;;;;5085677;28;20045;-76
2022/01/05 12:59:08;;;;;;;16.35;2.83;;;7.50;99.90;;;;;;5108091;28;20479;-74
2022/01/05 13:01:34;;;;;;;16.65;3.10;;;7.50;99.90;;;;;;5076586;28;20047;-74